sensor_id;sensor_type;location;lat;lon;timestamp;pressure;altitude;pressure_sealevel;temperature;humidity
8653;BME280;4364;52.426;9.424;2023-05-22T00:01:03;101017.41;;;18.20;71.41
8653;BME280;4364;52.426;9.424;2023-05-22T00:03:32;101018.38;;;18.24;71.16
8653;BME280;4364;52.426;9.424;2023-05-22T00:05:58;101022.25;;;18.14;71.75
8653;BME280;4364;52.426;9.424;2023-05-22T00:08:26;101018.84;;;18.08;71.99
8653;BME280;4364;52.426;9.424;2023-05-22T00:10:55;101020.47;;;18.09;72.13
8653;BME280;4364;52.426;9.424;2023-05-22T00:13:21;101019.81;;;18.12;71.77
8653;BME280;4364;52.426;9.424;2023-05-22T00:15:48;101022.88;;;18.02;72.22
8653;BME280;4364;52.426;9.424;2023-05-22T00:18:15;101032.09;;;17.98;73.04
8653;BME280;4364;52.426;9.424;2023-05-22T00:20:41;101021.72;;;17.94;73.07
8653;BME280;4364;52.426;9.424;2023-05-22T00:23:08;101013.78;;;17.93;72.90
8653;BME280;4364;52.426;9.424;2023-05-22T00:25:36;101017.34;;;17.93;73.24
8653;BME280;4364;52.426;9.424;2023-05-22T00:28:03;101015.72;;;17.92;73.12
8653;BME280;4364;52.426;9.424;2023-05-22T00:30:30;101014.22;;;17.86;73.39
8653;BME280;4364;52.426;9.424;2023-05-22T00:32:57;101014.06;;;17.83;73.38
8653;BME280;4364;52.426;9.424;2023-05-22T00:35:24;101009.19;;;17.80;73.65
8653;BME280;4364;52.426;9.424;2023-05-22T00:37:50;101002.06;;;17.78;73.49
8653;BME280;4364;52.426;9.424;2023-05-22T00:40:17;101007.72;;;17.82;73.63
8653;BME280;4364;52.426;9.424;2023-05-22T00:42:43;101002.22;;;17.82;73.42
8653;BME280;4364;52.426;9.424;2023-05-22T00:45:11;100994.13;;;17.86;72.90
8653;BME280;4364;52.426;9.424;2023-05-22T00:47:38;100993.97;;;17.82;72.90
8653;BME280;4364;52.426;9.424;2023-05-22T00:50:06;100997.88;;;17.81;73.11
8653;BME280;4364;52.426;9.424;2023-05-22T00:52:38;100989.09;;;17.79;72.92
8653;BME280;4364;52.426;9.424;2023-05-22T00:55:06;100995.06;;;17.72;73.58
8653;BME280;4364;52.426;9.424;2023-05-22T00:57:35;100986.00;;;17.63;73.62
8653;BME280;4364;52.426;9.424;2023-05-22T01:00:02;100991.78;;;17.53;74.30
8653;BME280;4364;52.426;9.424;2023-05-22T01:02:31;100987.41;;;17.52;74.22
8653;BME280;4364;52.426;9.424;2023-05-22T01:04:58;100991.31;;;17.59;73.79
8653;BME280;4364;52.426;9.424;2023-05-22T01:07:25;100987.94;;;17.63;73.80
8653;BME280;4364;52.426;9.424;2023-05-22T01:09:51;100981.28;;;17.55;73.74
8653;BME280;4364;52.426;9.424;2023-05-22T01:12:26;100988.03;;;17.49;74.22
8653;BME280;4364;52.426;9.424;2023-05-22T01:15:31;100984.16;;;17.50;74.79
8653;BME280;4364;52.426;9.424;2023-05-22T01:18:05;100986.59;;;17.51;74.73
8653;BME280;4364;52.426;9.424;2023-05-22T01:20:42;100981.09;;;17.51;74.41
8653;BME280;4364;52.426;9.424;2023-05-22T01:26:21;100985.28;;;17.49;74.36
8653;BME280;4364;52.426;9.424;2023-05-22T01:31:39;100987.53;;;17.47;74.45
8653;BME280;4364;52.426;9.424;2023-05-22T01:34:09;100979.44;;;17.41;74.21
8653;BME280;4364;52.426;9.424;2023-05-22T01:36:38;100993.31;;;17.36;74.48
8653;BME280;4364;52.426;9.424;2023-05-22T01:39:07;100975.72;;;17.37;74.58
8653;BME280;4364;52.426;9.424;2023-05-22T01:41:34;100975.38;;;17.39;74.61
8653;BME280;4364;52.426;9.424;2023-05-22T01:44:02;100978.47;;;17.37;74.73
8653;BME280;4364;52.426;9.424;2023-05-22T01:46:29;100962.75;;;17.38;74.91
8653;BME280;4364;52.426;9.424;2023-05-22T01:48:57;100972.13;;;17.37;74.90
8653;BME280;4364;52.426;9.424;2023-05-22T01:51:52;100977.44;;;17.33;74.88
8653;BME280;4364;52.426;9.424;2023-05-22T01:54:32;100978.38;;;17.29;74.90
8653;BME280;4364;52.426;9.424;2023-05-22T01:57:16;100966.28;;;17.30;74.56
8653;BME280;4364;52.426;9.424;2023-05-22T01:59:58;100970.28;;;17.23;74.70
8653;BME280;4364;52.426;9.424;2023-05-22T02:02:56;100965.63;;;17.24;74.77
8653;BME280;4364;52.426;9.424;2023-05-22T02:05:25;100971.22;;;17.19;75.15
8653;BME280;4364;52.426;9.424;2023-05-22T02:07:58;100961.88;;;17.20;75.02
8653;BME280;4364;52.426;9.424;2023-05-22T02:10:26;100963.84;;;17.28;74.46
8653;BME280;4364;52.426;9.424;2023-05-22T02:12:54;100964.25;;;17.13;74.77
8653;BME280;4364;52.426;9.424;2023-05-22T02:15:22;100975.06;;;17.09;75.11
8653;BME280;4364;52.426;9.424;2023-05-22T02:17:48;100967.94;;;17.08;75.00
8653;BME280;4364;52.426;9.424;2023-05-22T02:20:15;100964.72;;;17.06;74.99
8653;BME280;4364;52.426;9.424;2023-05-22T02:22:46;100963.06;;;17.05;75.56
8653;BME280;4364;52.426;9.424;2023-05-22T02:25:13;100961.78;;;17.02;75.47
8653;BME280;4364;52.426;9.424;2023-05-22T02:27:41;100963.88;;;17.06;74.95
8653;BME280;4364;52.426;9.424;2023-05-22T02:30:09;100958.03;;;16.98;75.88
8653;BME280;4364;52.426;9.424;2023-05-22T02:32:38;100958.34;;;16.97;75.34
8653;BME280;4364;52.426;9.424;2023-05-22T02:35:06;100966.22;;;16.90;75.96
8653;BME280;4364;52.426;9.424;2023-05-22T02:37:33;100950.66;;;16.85;76.00
8653;BME280;4364;52.426;9.424;2023-05-22T02:39:59;100956.97;;;16.85;75.91
8653;BME280;4364;52.426;9.424;2023-05-22T02:42:28;100944.28;;;16.76;75.95
8653;BME280;4364;52.426;9.424;2023-05-22T02:44:55;100957.94;;;16.67;76.26
8653;BME280;4364;52.426;9.424;2023-05-22T02:47:21;100954.03;;;16.59;76.93
8653;BME280;4364;52.426;9.424;2023-05-22T02:49:49;100946.09;;;16.58;77.25
8653;BME280;4364;52.426;9.424;2023-05-22T02:52:16;100946.91;;;16.58;77.32
8653;BME280;4364;52.426;9.424;2023-05-22T02:54:42;100940.72;;;16.53;77.23
8653;BME280;4364;52.426;9.424;2023-05-22T02:57:09;100939.28;;;16.55;76.83
8653;BME280;4364;52.426;9.424;2023-05-22T02:59:36;100938.78;;;16.53;77.36
8653;BME280;4364;52.426;9.424;2023-05-22T03:02:02;100934.09;;;16.54;77.41
8653;BME280;4364;52.426;9.424;2023-05-22T03:04:29;100943.16;;;16.54;76.94
8653;BME280;4364;52.426;9.424;2023-05-22T03:06:55;100936.47;;;16.46;77.15
8653;BME280;4364;52.426;9.424;2023-05-22T03:09:22;100941.28;;;16.41;77.48
8653;BME280;4364;52.426;9.424;2023-05-22T03:11:49;100940.97;;;16.42;77.44
8653;BME280;4364;52.426;9.424;2023-05-22T03:14:16;100943.00;;;16.37;77.17
8653;BME280;4364;52.426;9.424;2023-05-22T03:16:43;100939.28;;;16.33;77.72
8653;BME280;4364;52.426;9.424;2023-05-22T03:19:11;100936.53;;;16.33;77.63
8653;BME280;4364;52.426;9.424;2023-05-22T03:21:38;100938.78;;;16.30;77.93
8653;BME280;4364;52.426;9.424;2023-05-22T03:24:06;100936.97;;;16.26;77.83
8653;BME280;4364;52.426;9.424;2023-05-22T03:26:33;100937.75;;;16.26;78.02
8653;BME280;4364;52.426;9.424;2023-05-22T03:29:02;100941.31;;;16.27;78.05
8653;BME280;4364;52.426;9.424;2023-05-22T03:31:29;100934.34;;;16.21;78.27
8653;BME280;4364;52.426;9.424;2023-05-22T03:34:17;100938.81;;;16.17;78.48
8653;BME280;4364;52.426;9.424;2023-05-22T03:36:46;100935.56;;;16.15;78.43
8653;BME280;4364;52.426;9.424;2023-05-22T03:39:14;100938.81;;;16.17;79.03
8653;BME280;4364;52.426;9.424;2023-05-22T03:41:50;100930.88;;;16.15;78.72
8653;BME280;4364;52.426;9.424;2023-05-22T03:44:17;100935.97;;;16.08;79.56
8653;BME280;4364;52.426;9.424;2023-05-22T03:46:44;100946.47;;;16.06;79.85
8653;BME280;4364;52.426;9.424;2023-05-22T03:49:11;100938.53;;;16.04;79.65
8653;BME280;4364;52.426;9.424;2023-05-22T03:51:37;100940.34;;;16.09;79.75
8653;BME280;4364;52.426;9.424;2023-05-22T03:54:04;100927.94;;;16.11;79.61
8653;BME280;4364;52.426;9.424;2023-05-22T03:56:31;100933.63;;;16.15;79.48
8653;BME280;4364;52.426;9.424;2023-05-22T03:58:57;100937.38;;;16.19;79.15
8653;BME280;4364;52.426;9.424;2023-05-22T04:01:24;100933.00;;;16.18;79.29
8653;BME280;4364;52.426;9.424;2023-05-22T04:03:50;100926.72;;;16.18;78.98
8653;BME280;4364;52.426;9.424;2023-05-22T04:06:17;100934.84;;;16.23;78.98
8653;BME280;4364;52.426;9.424;2023-05-22T04:08:47;100932.47;;;16.30;78.00
8653;BME280;4364;52.426;9.424;2023-05-22T04:11:14;100931.53;;;16.35;77.30
8653;BME280;4364;52.426;9.424;2023-05-22T04:13:44;100931.16;;;16.27;77.65
8653;BME280;4364;52.426;9.424;2023-05-22T04:16:10;100930.03;;;16.28;77.51
8653;BME280;4364;52.426;9.424;2023-05-22T04:18:37;100928.19;;;16.38;77.49
8653;BME280;4364;52.426;9.424;2023-05-22T04:21:04;100929.69;;;16.44;76.37
8653;BME280;4364;52.426;9.424;2023-05-22T04:23:33;100936.28;;;16.43;76.69
8653;BME280;4364;52.426;9.424;2023-05-22T04:26:02;100928.91;;;16.52;75.77
8653;BME280;4364;52.426;9.424;2023-05-22T04:28:29;100938.59;;;16.49;75.51
8653;BME280;4364;52.426;9.424;2023-05-22T04:30:56;100934.63;;;16.56;75.04
8653;BME280;4364;52.426;9.424;2023-05-22T04:33:28;100930.44;;;16.58;75.37
8653;BME280;4364;52.426;9.424;2023-05-22T04:35:56;100929.38;;;16.68;75.01
8653;BME280;4364;52.426;9.424;2023-05-22T04:38:22;100931.06;;;16.78;73.78
8653;BME280;4364;52.426;9.424;2023-05-22T04:40:51;100932.13;;;16.68;74.21
8653;BME280;4364;52.426;9.424;2023-05-22T04:43:18;100925.69;;;16.73;73.62
8653;BME280;4364;52.426;9.424;2023-05-22T04:45:44;100925.75;;;16.81;72.98
8653;BME280;4364;52.426;9.424;2023-05-22T04:48:11;100927.38;;;16.82;72.74
8653;BME280;4364;52.426;9.424;2023-05-22T04:50:38;100922.19;;;16.81;72.94
8653;BME280;4364;52.426;9.424;2023-05-22T04:53:05;100921.38;;;17.03;71.41
8653;BME280;4364;52.426;9.424;2023-05-22T04:55:32;100931.81;;;16.92;71.86
8653;BME280;4364;52.426;9.424;2023-05-22T04:58:02;100923.94;;;16.99;71.47
8653;BME280;4364;52.426;9.424;2023-05-22T05:00:28;100933.78;;;17.00;70.65
8653;BME280;4364;52.426;9.424;2023-05-22T05:02:55;100925.94;;;17.08;70.33
8653;BME280;4364;52.426;9.424;2023-05-22T05:05:23;100921.38;;;17.03;70.47
8653;BME280;4364;52.426;9.424;2023-05-22T05:07:50;100925.94;;;17.08;70.15
8653;BME280;4364;52.426;9.424;2023-05-22T05:10:17;100922.41;;;17.16;69.66
8653;BME280;4364;52.426;9.424;2023-05-22T05:12:44;100921.28;;;17.17;69.09
8653;BME280;4364;52.426;9.424;2023-05-22T05:15:11;100925.78;;;17.13;69.46
8653;BME280;4364;52.426;9.424;2023-05-22T05:17:38;100915.94;;;17.20;69.58
8653;BME280;4364;52.426;9.424;2023-05-22T05:20:06;100922.75;;;17.23;69.04
8653;BME280;4364;52.426;9.424;2023-05-22T05:22:33;100919.88;;;17.28;69.37
8653;BME280;4364;52.426;9.424;2023-05-22T05:25:01;100916.81;;;17.30;69.06
8653;BME280;4364;52.426;9.424;2023-05-22T05:27:29;100921.38;;;17.43;67.76
8653;BME280;4364;52.426;9.424;2023-05-22T05:29:55;100920.38;;;17.39;67.96
8653;BME280;4364;52.426;9.424;2023-05-22T05:32:27;100913.00;;;17.48;67.98
8653;BME280;4364;52.426;9.424;2023-05-22T05:35:20;100920.94;;;17.58;67.68
8653;BME280;4364;52.426;9.424;2023-05-22T05:37:50;100911.44;;;17.65;66.78
8653;BME280;4364;52.426;9.424;2023-05-22T05:40:17;100911.28;;;17.61;67.60
8653;BME280;4364;52.426;9.424;2023-05-22T05:42:50;100919.38;;;17.75;66.52
8653;BME280;4364;52.426;9.424;2023-05-22T05:45:21;100919.38;;;17.84;66.39
8653;BME280;4364;52.426;9.424;2023-05-22T05:47:50;100913.28;;;17.87;65.91
8653;BME280;4364;52.426;9.424;2023-05-22T05:50:17;100923.34;;;17.91;66.22
8653;BME280;4364;52.426;9.424;2023-05-22T05:52:44;100924.16;;;18.09;65.64
8653;BME280;4364;52.426;9.424;2023-05-22T05:55:14;100920.94;;;18.25;64.97
8653;BME280;4364;52.426;9.424;2023-05-22T05:57:41;100924.97;;;18.27;64.53
8653;BME280;4364;52.426;9.424;2023-05-22T06:00:13;100919.66;;;18.31;64.18
8653;BME280;4364;52.426;9.424;2023-05-22T06:02:39;100928.84;;;18.44;63.70
8653;BME280;4364;52.426;9.424;2023-05-22T06:05:18;100924.16;;;18.53;63.26
8653;BME280;4364;52.426;9.424;2023-05-22T06:07:49;100923.34;;;18.52;63.92
8653;BME280;4364;52.426;9.424;2023-05-22T06:10:17;100928.22;;;18.64;63.67
8653;BME280;4364;52.426;9.424;2023-05-22T06:13:04;100931.44;;;18.75;63.11
8653;BME280;4364;52.426;9.424;2023-05-22T06:15:30;100929.16;;;18.77;62.68
8653;BME280;4364;52.426;9.424;2023-05-22T06:17:57;100931.44;;;18.75;62.98
8653;BME280;4364;52.426;9.424;2023-05-22T06:20:24;100933.69;;;18.82;62.70
8653;BME280;4364;52.426;9.424;2023-05-22T06:22:50;100927.16;;;19.04;61.87
8653;BME280;4364;52.426;9.424;2023-05-22T06:25:17;100938.66;;;19.06;61.37
8653;BME280;4364;52.426;9.424;2023-05-22T06:27:45;100932.69;;;19.04;62.16
8653;BME280;4364;52.426;9.424;2023-05-22T06:30:14;100932.66;;;19.13;61.26
8653;BME280;4364;52.426;9.424;2023-05-22T06:32:53;100935.56;;;19.16;61.15
8653;BME280;4364;52.426;9.424;2023-05-22T06:35:21;100938.31;;;19.25;61.06
8653;BME280;4364;52.426;9.424;2023-05-22T06:37:47;100932.03;;;19.46;60.43
8653;BME280;4364;52.426;9.424;2023-05-22T06:40:15;100938.94;;;19.60;59.81
8653;BME280;4364;52.426;9.424;2023-05-22T06:42:47;100940.31;;;19.46;59.66
8653;BME280;4364;52.426;9.424;2023-05-22T06:45:39;100948.50;;;19.33;60.37
8653;BME280;4364;52.426;9.424;2023-05-22T06:48:17;100944.75;;;19.29;60.49
8653;BME280;4364;52.426;9.424;2023-05-22T06:50:56;100944.75;;;19.38;60.06
8653;BME280;4364;52.426;9.424;2023-05-22T06:53:24;100945.78;;;19.54;59.85
8653;BME280;4364;52.426;9.424;2023-05-22T06:55:51;100941.78;;;19.82;59.33
8653;BME280;4364;52.426;9.424;2023-05-22T06:58:27;100935.47;;;20.02;58.96
8653;BME280;4364;52.426;9.424;2023-05-22T07:00:54;100936.50;;;20.18;58.39
8653;BME280;4364;52.426;9.424;2023-05-22T07:03:29;100933.69;;;20.27;57.59
8653;BME280;4364;52.426;9.424;2023-05-22T07:06:15;100931.50;;;20.33;57.41
8653;BME280;4364;52.426;9.424;2023-05-22T07:08:43;100934.47;;;20.28;57.69
8653;BME280;4364;52.426;9.424;2023-05-22T07:11:10;100930.38;;;20.13;58.40
8653;BME280;4364;52.426;9.424;2023-05-22T07:13:36;100934.75;;;20.14;58.60
8653;BME280;4364;52.426;9.424;2023-05-22T07:16:03;100936.19;;;20.20;58.56
8653;BME280;4364;52.426;9.424;2023-05-22T07:18:30;100947.81;;;20.47;57.04
8653;BME280;4364;52.426;9.424;2023-05-22T07:20:57;100936.09;;;20.50;57.52
8653;BME280;4364;52.426;9.424;2023-05-22T07:23:24;100942.38;;;20.92;56.50
8653;BME280;4364;52.426;9.424;2023-05-22T07:25:51;100939.03;;;20.99;55.65
8653;BME280;4364;52.426;9.424;2023-05-22T07:28:21;100936.38;;;20.90;56.32
8653;BME280;4364;52.426;9.424;2023-05-22T07:30:58;100939.84;;;21.00;55.73
8653;BME280;4364;52.426;9.424;2023-05-22T07:33:25;100931.25;;;21.14;55.84
8653;BME280;4364;52.426;9.424;2023-05-22T07:35:53;100936.59;;;21.43;55.12
8653;BME280;4364;52.426;9.424;2023-05-22T07:38:20;100934.97;;;21.79;54.10
8653;BME280;4364;52.426;9.424;2023-05-22T07:40:55;100934.81;;;22.13;54.04
8653;BME280;4364;52.426;9.424;2023-05-22T07:43:23;100931.63;;;22.27;52.78
8653;BME280;4364;52.426;9.424;2023-05-22T07:45:50;100931.91;;;22.34;52.75
8653;BME280;4364;52.426;9.424;2023-05-22T07:48:23;100933.81;;;22.46;52.45
8653;BME280;4364;52.426;9.424;2023-05-22T07:50:50;100932.59;;;22.59;51.73
8653;BME280;4364;52.426;9.424;2023-05-22T07:53:16;100925.22;;;22.79;51.19
8653;BME280;4364;52.426;9.424;2023-05-22T07:55:47;100945.50;;;22.67;51.27
8653;BME280;4364;52.426;9.424;2023-05-22T07:58:14;100935.31;;;22.71;51.82
8653;BME280;4364;52.426;9.424;2023-05-22T08:00:42;100935.78;;;22.89;51.26
8653;BME280;4364;52.426;9.424;2023-05-22T08:03:09;100940.38;;;22.98;50.78
8653;BME280;4364;52.426;9.424;2023-05-22T08:05:36;100938.13;;;23.03;50.99
8653;BME280;4364;52.426;9.424;2023-05-22T08:08:03;100942.66;;;23.24;51.08
8653;BME280;4364;52.426;9.424;2023-05-22T08:10:30;100943.91;;;23.42;50.96
8653;BME280;4364;52.426;9.424;2023-05-22T08:13:12;100941.50;;;23.41;50.30
8653;BME280;4364;52.426;9.424;2023-05-22T08:15:41;100934.06;;;23.29;51.08
8653;BME280;4364;52.426;9.424;2023-05-22T08:18:07;100936.03;;;23.44;50.67
8653;BME280;4364;52.426;9.424;2023-05-22T08:20:34;100942.03;;;23.46;50.86
8653;BME280;4364;52.426;9.424;2023-05-22T08:23:01;100935.41;;;23.51;50.57
8653;BME280;4364;52.426;9.424;2023-05-22T08:25:27;100938.34;;;23.58;50.08
8653;BME280;4364;52.426;9.424;2023-05-22T08:27:54;100938.78;;;23.60;49.93
8653;BME280;4364;52.426;9.424;2023-05-22T08:30:20;100929.66;;;23.60;50.05
8653;BME280;4364;52.426;9.424;2023-05-22T08:32:47;100926.41;;;23.74;50.80
8653;BME280;4364;52.426;9.424;2023-05-22T08:35:13;100926.88;;;23.76;50.07
8653;BME280;4364;52.426;9.424;2023-05-22T08:37:40;100927.75;;;23.96;49.72
8653;BME280;4364;52.426;9.424;2023-05-22T08:40:09;100925.16;;;23.87;49.31
8653;BME280;4364;52.426;9.424;2023-05-22T08:42:37;100921.84;;;23.97;49.11
8653;BME280;4364;52.426;9.424;2023-05-22T08:45:04;100920.44;;;24.07;48.75
8653;BME280;4364;52.426;9.424;2023-05-22T08:47:33;100908.75;;;24.17;48.95
8653;BME280;4364;52.426;9.424;2023-05-22T08:50:02;100907.88;;;24.33;48.41
8653;BME280;4364;52.426;9.424;2023-05-22T08:52:32;100918.56;;;24.11;49.18
8653;BME280;4364;52.426;9.424;2023-05-22T08:55:02;100913.81;;;24.31;48.99
8653;BME280;4364;52.426;9.424;2023-05-22T08:57:31;100905.69;;;24.22;49.35
8653;BME280;4364;52.426;9.424;2023-05-22T08:59:58;100901.66;;;24.39;48.62
8653;BME280;4364;52.426;9.424;2023-05-22T09:02:24;100901.78;;;24.47;49.22
8653;BME280;4364;52.426;9.424;2023-05-22T09:04:52;100905.72;;;24.85;48.16
8653;BME280;4364;52.426;9.424;2023-05-22T09:07:18;100891.31;;;25.02;47.83
8653;BME280;4364;52.426;9.424;2023-05-22T09:09:47;100891.16;;;25.14;47.67
8653;BME280;4364;52.426;9.424;2023-05-22T09:12:14;100894.81;;;25.22;47.03
8653;BME280;4364;52.426;9.424;2023-05-22T09:14:42;100890.00;;;25.19;47.17
8653;BME280;4364;52.426;9.424;2023-05-22T09:17:10;100894.41;;;25.43;46.95
8653;BME280;4364;52.426;9.424;2023-05-22T09:19:37;100887.41;;;25.53;46.48
8653;BME280;4364;52.426;9.424;2023-05-22T09:22:04;100881.97;;;25.64;46.17
8653;BME280;4364;52.426;9.424;2023-05-22T09:24:41;100892.78;;;25.69;45.57
8653;BME280;4364;52.426;9.424;2023-05-22T09:27:09;100893.75;;;25.80;44.60
8653;BME280;4364;52.426;9.424;2023-05-22T09:29:53;100890.31;;;25.91;45.40
8653;BME280;4364;52.426;9.424;2023-05-22T09:32:20;100893.59;;;25.96;44.58
8653;BME280;4364;52.426;9.424;2023-05-22T09:34:47;100893.66;;;26.00;44.53
8653;BME280;4364;52.426;9.424;2023-05-22T09:37:15;100884.59;;;25.80;45.25
8653;BME280;4364;52.426;9.424;2023-05-22T09:39:43;100884.97;;;25.78;44.98
8653;BME280;4364;52.426;9.424;2023-05-22T09:42:11;100888.75;;;25.93;45.93
8653;BME280;4364;52.426;9.424;2023-05-22T09:44:40;100883.53;;;26.18;45.34
8653;BME280;4364;52.426;9.424;2023-05-22T09:47:09;100885.13;;;26.19;44.88
8653;BME280;4364;52.426;9.424;2023-05-22T09:49:43;100886.66;;;26.13;44.83
8653;BME280;4364;52.426;9.424;2023-05-22T09:52:11;100882.78;;;26.21;44.87
8653;BME280;4364;52.426;9.424;2023-05-22T09:54:50;100873.06;;;26.42;44.49
8653;BME280;4364;52.426;9.424;2023-05-22T09:57:22;100883.53;;;26.56;44.34
8653;BME280;4364;52.426;9.424;2023-05-22T09:59:51;100883.13;;;26.54;44.39
8653;BME280;4364;52.426;9.424;2023-05-22T10:02:24;100882.00;;;26.58;45.05
8653;BME280;4364;52.426;9.424;2023-05-22T10:04:51;100883.38;;;26.75;43.08
8653;BME280;4364;52.426;9.424;2023-05-22T10:07:24;100876.63;;;26.76;44.05
8653;BME280;4364;52.426;9.424;2023-05-22T10:10:03;100874.72;;;26.88;43.44
8653;BME280;4364;52.426;9.424;2023-05-22T10:12:32;100878.59;;;27.21;42.91
8653;BME280;4364;52.426;9.424;2023-05-22T10:15:00;100874.88;;;27.06;43.30
8653;BME280;4364;52.426;9.424;2023-05-22T10:17:28;100870.19;;;27.17;43.53
8653;BME280;4364;52.426;9.424;2023-05-22T10:19:55;100863.09;;;27.27;42.86
8653;BME280;4364;52.426;9.424;2023-05-22T10:22:23;100868.75;;;27.34;41.91
8653;BME280;4364;52.426;9.424;2023-05-22T10:24:53;100871.09;;;27.28;42.27
8653;BME280;4364;52.426;9.424;2023-05-22T10:27:20;100862.44;;;27.44;42.27
8653;BME280;4364;52.426;9.424;2023-05-22T10:32:59;100862.56;;;27.62;41.19
8653;BME280;4364;52.426;9.424;2023-05-22T10:35:37;100856.97;;;27.62;40.98
8653;BME280;4364;52.426;9.424;2023-05-22T10:41:02;100843.78;;;27.63;40.23
8653;BME280;4364;52.426;9.424;2023-05-22T10:43:29;100842.59;;;27.60;40.26
8653;BME280;4364;52.426;9.424;2023-05-22T10:46:02;100852.13;;;27.52;40.61
8653;BME280;4364;52.426;9.424;2023-05-22T10:48:39;100843.78;;;27.59;40.78
8653;BME280;4364;52.426;9.424;2023-05-22T10:51:06;100849.84;;;27.68;40.68
8653;BME280;4364;52.426;9.424;2023-05-22T10:53:34;100840.72;;;27.89;40.28
8653;BME280;4364;52.426;9.424;2023-05-22T10:56:09;100842.38;;;27.94;39.64
8653;BME280;4364;52.426;9.424;2023-05-22T10:58:37;100837.19;;;27.93;40.03
8653;BME280;4364;52.426;9.424;2023-05-22T11:01:14;100829.66;;;28.07;40.65
8653;BME280;4364;52.426;9.424;2023-05-22T11:08:58;100839.69;;;28.23;40.13
8653;BME280;4364;52.426;9.424;2023-05-22T11:11:25;100830.91;;;28.21;39.36
8653;BME280;4364;52.426;9.424;2023-05-22T11:14:00;100832.47;;;28.07;40.19
8653;BME280;4364;52.426;9.424;2023-05-22T11:16:32;100833.69;;;28.17;40.51
8653;BME280;4364;52.426;9.424;2023-05-22T11:19:01;100819.72;;;28.32;40.45
8653;BME280;4364;52.426;9.424;2023-05-22T11:21:48;100816.94;;;28.21;40.55
8653;BME280;4364;52.426;9.424;2023-05-22T11:24:15;100825.38;;;28.50;39.83
8653;BME280;4364;52.426;9.424;2023-05-22T11:26:43;100825.75;;;28.41;39.25
8653;BME280;4364;52.426;9.424;2023-05-22T11:29:10;100824.13;;;28.22;39.15
8653;BME280;4364;52.426;9.424;2023-05-22T11:31:37;100824.94;;;28.33;39.57
8653;BME280;4364;52.426;9.424;2023-05-22T11:34:04;100825.31;;;28.17;39.38
8653;BME280;4364;52.426;9.424;2023-05-22T11:36:30;100816.81;;;27.88;40.04
8653;BME280;4364;52.426;9.424;2023-05-22T11:38:58;100814.94;;;28.25;39.74
8653;BME280;4364;52.426;9.424;2023-05-22T11:41:32;100815.84;;;28.72;39.46
8653;BME280;4364;52.426;9.424;2023-05-22T11:44:00;100815.84;;;28.79;38.86
8653;BME280;4364;52.426;9.424;2023-05-22T11:46:26;100814.22;;;28.75;38.77
8653;BME280;4364;52.426;9.424;2023-05-22T11:48:55;100811.44;;;28.71;39.35
8653;BME280;4364;52.426;9.424;2023-05-22T11:51:22;100809.38;;;28.43;39.80
8653;BME280;4364;52.426;9.424;2023-05-22T11:53:48;100805.78;;;28.42;39.71
8653;BME280;4364;52.426;9.424;2023-05-22T11:56:18;100812.22;;;28.61;38.79
8653;BME280;4364;52.426;9.424;2023-05-22T11:58:49;100803.78;;;28.28;39.78
8653;BME280;4364;52.426;9.424;2023-05-22T12:01:16;100800.16;;;28.21;39.67
8653;BME280;4364;52.426;9.424;2023-05-22T12:03:43;100810.09;;;28.04;40.17
8653;BME280;4364;52.426;9.424;2023-05-22T12:06:10;100798.66;;;27.50;41.79
8653;BME280;4364;52.426;9.424;2023-05-22T12:08:39;100800.03;;;27.18;42.50
8653;BME280;4364;52.426;9.424;2023-05-22T12:11:05;100798.94;;;26.78;43.27
8653;BME280;4364;52.426;9.424;2023-05-22T12:13:32;100796.06;;;26.71;44.35
8653;BME280;4364;52.426;9.424;2023-05-22T12:15:59;100786.72;;;26.53;44.23
8653;BME280;4364;52.426;9.424;2023-05-22T12:18:33;100791.09;;;26.50;44.37
8653;BME280;4364;52.426;9.424;2023-05-22T12:21:00;100787.94;;;26.14;45.29
8653;BME280;4364;52.426;9.424;2023-05-22T12:23:27;100791.53;;;26.15;45.50
8653;BME280;4364;52.426;9.424;2023-05-22T12:26:01;100791.16;;;26.16;46.20
8653;BME280;4364;52.426;9.424;2023-05-22T12:28:31;100787.91;;;26.11;46.41
8653;BME280;4364;52.426;9.424;2023-05-22T12:30:59;100777.91;;;26.06;47.11
8653;BME280;4364;52.426;9.424;2023-05-22T12:33:30;100784.03;;;26.22;46.03
8653;BME280;4364;52.426;9.424;2023-05-22T12:35:57;100774.88;;;26.22;46.29
8653;BME280;4364;52.426;9.424;2023-05-22T12:38:25;100777.59;;;26.15;44.96
8653;BME280;4364;52.426;9.424;2023-05-22T12:40:54;100783.16;;;26.11;44.66
8653;BME280;4364;52.426;9.424;2023-05-22T12:43:24;100779.88;;;26.05;44.58
8653;BME280;4364;52.426;9.424;2023-05-22T12:45:51;100780.22;;;26.00;44.86
8653;BME280;4364;52.426;9.424;2023-05-22T12:48:18;100777.44;;;26.00;45.46
8653;BME280;4364;52.426;9.424;2023-05-22T12:50:45;100775.44;;;26.01;45.97
8653;BME280;4364;52.426;9.424;2023-05-22T12:53:12;100775.50;;;26.04;44.92
8653;BME280;4364;52.426;9.424;2023-05-22T12:55:39;100776.34;;;26.09;44.80
8653;BME280;4364;52.426;9.424;2023-05-22T12:58:06;100768.78;;;26.09;44.49
8653;BME280;4364;52.426;9.424;2023-05-22T13:00:33;100775.09;;;26.06;44.58
8653;BME280;4364;52.426;9.424;2023-05-22T13:03:00;100766.53;;;26.22;44.23
8653;BME280;4364;52.426;9.424;2023-05-22T13:05:27;100759.66;;;26.12;44.46
8653;BME280;4364;52.426;9.424;2023-05-22T13:07:53;100767.22;;;26.12;44.78
8653;BME280;4364;52.426;9.424;2023-05-22T13:10:20;100763.41;;;26.27;44.69
8653;BME280;4364;52.426;9.424;2023-05-22T13:12:47;100763.63;;;26.52;45.03
8653;BME280;4364;52.426;9.424;2023-05-22T13:15:17;100763.06;;;26.73;44.44
8653;BME280;4364;52.426;9.424;2023-05-22T13:17:43;100762.81;;;26.96;44.95
8653;BME280;4364;52.426;9.424;2023-05-22T13:20:11;100759.31;;;27.07;44.66
8653;BME280;4364;52.426;9.424;2023-05-22T13:22:39;100764.47;;;27.78;43.47
8653;BME280;4364;52.426;9.424;2023-05-22T13:25:06;100749.81;;;28.06;41.94
8653;BME280;4364;52.426;9.424;2023-05-22T13:27:33;100748.66;;;28.40;41.72
8653;BME280;4364;52.426;9.424;2023-05-22T13:29:59;100741.50;;;28.75;40.43
8653;BME280;4364;52.426;9.424;2023-05-22T13:32:26;100743.84;;;29.01;39.65
8653;BME280;4364;52.426;9.424;2023-05-22T13:34:52;100739.06;;;29.09;38.48
8653;BME280;4364;52.426;9.424;2023-05-22T13:37:19;100735.09;;;28.78;38.68